Time;durP1;ratioP1;P1;durP2;ratioP2;P2;SDS_P1;SDS_P2;PMS_P1;PMS_P2;Temp;Humidity;BMP_temperature;BMP_pressure;BME280_temperature;BME280_humidity;BME280_pressure;Samples;Min_cycle;Max_cycle;Signal;HPM_P1;HPM_P2
2021/11/11 00:01:15;;;;;;;;;48.25;40.50;;;;;19.17;44.27;101617.81;5043357;28;45278;-74
2021/11/11 00:03:40;;;;;;;;;49.75;39.75;;;;;19.12;44.25;101606.44;5043436;28;49094;-75
2021/11/11 00:06:07;;;;;;;;;51.00;39.50;;;;;19.10;44.46;101602.03;5043798;28;45377;-75
2021/11/11 00:08:33;;;;;;;;;45.00;39.00;;;;;19.08;43.98;101603.84;5026672;28;55043;-75
2021/11/11 00:11:18;;;;;;;;;50.00;39.00;;;;;19.04;44.11;101603.00;5043676;28;45709;-74
2021/11/11 00:13:44;;;;;;;;;52.00;40.75;;;;;19.01;44.41;101605.66;5045559;28;47360;-75
2021/11/11 00:16:09;;;;;;;;;48.25;38.75;;;;;18.98;45.01;101605.72;5059658;28;60109;-75
2021/11/11 00:18:35;;;;;;;;;47.25;39.25;;;;;18.97;44.97;101601.31;5043397;28;52576;-74
2021/11/11 00:21:00;;;;;;;;;49.00;38.50;;;;;18.98;44.90;101599.56;5043157;28;50677;-74
2021/11/11 00:23:25;;;;;;;;;43.50;35.75;;;;;19.00;45.22;101598.63;5043516;28;46957;-74
2021/11/11 00:25:51;;;;;;;;;48.00;41.50;;;;;19.03;45.03;101609.19;5043359;28;47908;-74
2021/11/11 00:28:16;;;;;;;;;45.25;37.50;;;;;19.00;45.30;101603.94;5042721;28;60265;-74
2021/11/11 00:30:42;;;;;;;;;45.50;37.50;;;;;19.00;44.69;101597.75;5059599;28;54541;-74
2021/11/11 00:33:07;;;;;;;;;53.25;43.00;;;;;18.99;45.25;101591.59;5026243;28;63619;-74
2021/11/11 00:35:33;;;;;;;;;48.75;40.75;;;;;19.00;44.75;101590.69;5042845;28;54868;-74
2021/11/11 00:37:59;;;;;;;;;44.00;37.75;;;;;19.00;44.99;101588.06;5060201;28;45295;-74
2021/11/11 00:40:29;;;;;;;;;46.50;38.25;;;;;18.99;44.59;101578.38;5061202;28;45493;-74
2021/11/11 00:42:54;;;;;;;;;50.75;41.25;;;;;18.96;44.93;101575.78;5059675;28;45758;-74
2021/11/11 00:45:20;;;;;;;;;50.25;40.75;;;;;18.96;44.76;101572.25;5058974;28;64766;-74
2021/11/11 00:47:46;;;;;;;;;48.00;39.00;;;;;18.96;44.70;101577.53;5061250;28;45395;-74
2021/11/11 00:50:11;;;;;;;;;42.50;35.75;;;;;18.93;44.68;101574.00;5026453;28;45609;-74
2021/11/11 00:52:37;;;;;;;;;49.00;37.50;;;;;18.91;44.89;101575.81;5059829;28;45869;-74
2021/11/11 00:55:03;;;;;;;;;47.50;37.25;;;;;18.90;45.16;101578.47;5059535;28;45360;-74
2021/11/11 00:57:29;;;;;;;;;42.00;34.75;;;;;18.92;45.02;101582.84;5064399;28;45416;-74
2021/11/11 01:00:01;;;;;;;;;48.75;39.75;;;;;18.93;44.99;101568.72;5042407;28;45413;-74
2021/11/11 01:02:27;;;;;;;;;46.00;37.50;;;;;18.93;45.04;101566.06;5028167;28;47331;-74
2021/11/11 01:04:52;;;;;;;;;44.00;36.25;;;;;18.96;44.72;101570.47;5058334;28;45371;-74
2021/11/11 01:07:18;;;;;;;;;46.25;38.25;;;;;18.98;44.84;101567.81;5075865;28;63941;-74
2021/11/11 01:09:43;;;;;;;;;49.00;39.75;;;;;18.98;44.57;101566.03;5060172;28;58936;-74
2021/11/11 01:12:09;;;;;;;;;48.25;37.25;;;;;18.97;44.71;101572.22;5025752;28;47344;-74
2021/11/11 01:14:35;;;;;;;;;52.25;37.50;;;;;18.96;44.58;101578.41;5059410;28;45423;-74
2021/11/11 01:17:00;;;;;;;;;50.25;38.50;;;;;18.96;45.04;101572.25;5059737;28;45427;-74
2021/11/11 01:19:26;;;;;;;;;50.75;39.50;;;;;18.92;44.29;101564.34;5041989;28;63438;-74
2021/11/11 01:21:54;;;;;;;;;51.25;40.75;;;;;18.90;44.62;101560.84;5059422;28;46224;-74
2021/11/11 01:24:19;;;;;;;;;49.25;40.75;;;;;18.88;44.57;101560.00;5042887;28;45544;-74
2021/11/11 01:26:45;;;;;;;;;49.50;39.50;;;;;18.83;44.88;101555.63;5058715;28;57036;-74
2021/11/11 01:29:10;;;;;;;;;53.25;42.25;;;;;18.81;44.67;101560.06;5041982;28;56501;-74
2021/11/11 01:31:35;;;;;;;;;49.00;39.00;;;;;18.78;44.92;101570.69;5041766;28;61394;-74
2021/11/11 01:34:04;;;;;;;;;52.50;41.50;;;;;18.75;45.24;101560.13;5042078;28;45349;-75
2021/11/11 01:36:30;;;;;;;;;46.25;37.00;;;;;18.78;44.71;101552.19;5042995;28;45346;-74
2021/11/11 01:38:55;;;;;;;;;51.75;41.00;;;;;18.76;45.33;101551.31;5042007;28;45578;-75
2021/11/11 01:41:20;;;;;;;;;53.25;40.00;;;;;18.76;44.75;101543.38;5025666;28;46709;-74
2021/11/11 01:43:46;;;;;;;;;53.25;41.25;;;;;18.74;45.19;101537.22;5042079;28;45179;-74
2021/11/11 01:46:12;;;;;;;;;52.50;40.00;;;;;18.73;45.50;101530.19;5059296;28;45337;-74
2021/11/11 01:48:37;;;;;;;;;45.00;37.75;;;;;18.73;45.40;101530.19;5058865;28;45277;-74
2021/11/11 01:51:03;;;;;;;;;50.25;41.25;;;;;18.73;45.05;101528.44;5058644;28;58656;-74
2021/11/11 01:53:28;;;;;;;;;44.50;35.75;;;;;18.72;45.28;101529.31;5023182;28;45239;-74
2021/11/11 01:55:53;;;;;;;;;48.75;39.50;;;;;18.70;45.16;101523.19;5025677;28;45487;-74
2021/11/11 01:58:19;;;;;;;;;53.75;42.25;;;;;18.68;44.82;101524.06;5041683;28;45404;-74
2021/11/11 02:00:51;;;;;;;;;49.25;39.00;;;;;18.67;45.50;101515.25;5058026;28;62603;-74
2021/11/11 02:03:17;;;;;;;;;50.50;40.75;;;;;18.65;45.22;101527.63;5041877;28;45249;-74
2021/11/11 02:05:42;;;;;;;;;47.50;39.25;;;;;18.66;45.00;101534.66;5025545;28;45255;-74
2021/11/11 02:08:08;;;;;;;;;49.00;39.50;;;;;18.64;45.20;101534.66;5041888;28;45187;-74
2021/11/11 02:10:34;;;;;;;;;41.50;36.00;;;;;18.65;45.19;101530.28;5041334;28;46228;-74
2021/11/11 02:13:00;;;;;;;;;49.00;39.25;;;;;18.65;45.65;101522.34;5025098;28;45321;-74
2021/11/11 02:15:26;;;;;;;;;53.25;42.75;;;;;18.66;45.28;101515.28;5042203;28;45312;-74
2021/11/11 02:17:51;;;;;;;;;50.00;39.00;;;;;18.68;44.96;101521.44;5024871;28;53580;-74
2021/11/11 02:20:31;;;;;;;;;52.00;41.25;;;;;18.66;44.90;101513.53;5041499;28;54138;-74
2021/11/11 02:22:57;;;;;;;;;49.50;40.25;;;;;18.62;44.93;101514.44;5043041;28;45501;-74
2021/11/11 02:25:24;;;;;;;;;55.50;43.50;;;;;18.62;45.04;101522.34;5041903;28;45272;-74
2021/11/11 02:27:50;;;;;;;;;49.00;41.00;;;;;18.58;44.85;101516.22;5041421;28;45486;-74
2021/11/11 02:30:16;;;;;;;;;50.75;40.50;;;;;18.56;44.91;101514.50;5058259;28;46289;-74
2021/11/11 02:32:42;;;;;;;;;49.75;39.00;;;;;18.58;44.96;101523.28;5024931;28;45824;-74
2021/11/11 02:35:09;;;;;;;;;47.50;39.50;;;;;18.57;45.29;101537.38;5041713;28;46487;-74
2021/11/11 02:37:35;;;;;;;;;49.75;41.00;;;;;18.57;45.17;101532.97;5041394;28;45499;-74
2021/11/11 02:40:04;;;;;;;;;49.75;40.00;;;;;18.58;44.84;101528.56;5059705;28;45999;-74
2021/11/11 02:42:29;;;;;;;;;51.00;41.25;;;;;18.56;45.26;101525.94;5057848;28;45486;-74
2021/11/11 02:44:59;;;;;;;;;48.25;37.75;;;;;18.57;45.32;101522.41;5059648;28;45485;-74
2021/11/11 02:47:25;;;;;;;;;43.50;35.25;;;;;18.56;45.72;101531.22;5058062;28;45672;-74
2021/11/11 02:49:50;;;;;;;;;47.50;38.25;;;;;18.57;45.49;101529.47;5058101;28;49807;-74
2021/11/11 02:52:16;;;;;;;;;54.50;41.25;;;;;18.58;45.57;101523.28;5059315;28;45630;-74
2021/11/11 02:54:42;;;;;;;;;47.00;34.75;;;;;18.58;45.81;101526.78;5058279;28;45325;-74
2021/11/11 02:57:25;;;;;;;;;50.00;40.50;;;;;18.61;45.58;101534.72;5041009;28;46317;-74
2021/11/11 02:59:53;;;;;;;;;49.25;39.75;;;;;18.61;45.60;101534.72;5071525;28;48168;-74
2021/11/11 03:02:30;;;;;;;;;51.25;41.25;;;;;18.59;45.58;101527.66;5058207;28;45475;-74
2021/11/11 03:04:56;;;;;;;;;38.75;34.75;;;;;18.57;45.53;101532.97;5024756;28;45349;-74
2021/11/11 03:07:22;;;;;;;;;48.25;39.00;;;;;18.54;45.40;101522.44;5024999;28;45284;-74
2021/11/11 03:09:48;;;;;;;;;48.00;39.50;;;;;18.58;45.88;101531.19;5024533;28;46940;-74
2021/11/11 03:12:13;;;;;;;;;43.50;36.25;;;;;18.59;45.90;101530.31;5041073;28;45259;-74
2021/11/11 03:14:39;;;;;;;;;46.50;37.75;;;;;18.59;45.43;101535.59;5041190;28;45315;-74
2021/11/11 03:17:05;;;;;;;;;47.00;38.50;;;;;18.57;45.69;101530.31;5024691;28;45291;-74
2021/11/11 03:19:31;;;;;;;;;37.50;35.00;;;;;18.58;45.83;101534.72;5041104;28;45396;-74
2021/11/11 03:21:57;;;;;;;;;44.50;38.00;;;;;18.58;45.30;101526.78;5041138;28;45518;-74
2021/11/11 03:24:22;;;;;;;;;46.75;38.00;;;;;18.57;45.83;101525.03;5026734;28;54583;-74
2021/11/11 03:26:50;;;;;;;;;46.25;36.25;;;;;18.56;45.93;101528.59;5027502;28;53968;-74
2021/11/11 03:29:16;;;;;;;;;49.50;39.25;;;;;18.61;45.48;101540.00;5043749;28;59769;-74
2021/11/11 03:31:42;;;;;;;;;48.00;37.50;;;;;18.58;45.56;101526.78;5027744;28;45259;-74
2021/11/11 03:34:07;;;;;;;;;48.50;38.50;;;;;18.57;45.02;101532.09;5044406;28;45970;-74
2021/11/11 03:36:32;;;;;;;;;45.00;38.00;;;;;18.54;44.66;101533.03;5061779;28;63320;-74
2021/11/11 03:38:58;;;;;;;;;47.00;37.50;;;;;18.51;45.04;101527.78;5044077;28;47157;-74
2021/11/11 03:41:24;;;;;;;;;45.00;37.75;;;;;18.50;45.28;101531.28;5027588;28;45270;-74
2021/11/11 03:43:50;;;;;;;;;13.75;9.50;;;;;18.50;45.30;101535.69;5043963;28;45217;-74
2021/11/11 03:46:16;;;;;;;;;49.00;38.25;;;;;18.48;44.60;101522.50;5043932;28;45827;-74
2021/11/11 03:48:41;;;;;;;;;49.75;41.00;;;;;18.44;44.62;101523.44;5043839;28;48612;-74
2021/11/11 03:51:06;;;;;;;;;51.00;38.75;;;;;18.44;44.63;101531.38;5043995;28;45312;-74
2021/11/11 03:53:32;;;;;;;;;48.75;37.75;;;;;18.41;44.91;101536.66;5043856;28;45422;-74
2021/11/11 03:55:58;;;;;;;;;49.75;39.25;;;;;18.37;44.98;101540.25;5044182;28;45516;-74
2021/11/11 03:58:23;;;;;;;;;47.50;40.00;;;;;18.38;44.94;101552.56;5060430;28;45509;-74
2021/11/11 04:00:48;;;;;;;;;47.50;38.00;;;;;18.35;44.93;101537.63;5043773;28;45285;-74
2021/11/11 04:03:14;;;;;;;;;45.25;37.00;;;;;18.33;45.24;101547.34;5043029;28;61194;-74
2021/11/11 04:05:40;;;;;;;;;43.00;37.50;;;;;18.33;44.90;101544.69;5061460;28;60687;-74
2021/11/11 04:08:05;;;;;;;;;44.25;34.50;;;;;18.32;45.34;101544.69;5060447;28;45557;-74
2021/11/11 04:10:31;;;;;;;;;40.50;35.75;;;;;18.35;45.25;101549.97;5027243;28;45406;-74
2021/11/11 04:12:58;;;;;;;;;37.50;29.75;;;;;18.38;45.41;101546.41;5044145;28;45352;-74
2021/11/11 04:15:24;;;;;;;;;41.75;34.50;;;;;18.41;46.10;101554.28;5027025;28;45251;-74
2021/11/11 04:17:49;;;;;;;;;42.75;37.00;;;;;18.42;45.82;101551.66;5026309;28;63356;-74
2021/11/11 04:20:14;;;;;;;;;44.75;34.50;;;;;18.46;45.70;101550.72;5026986;28;45473;-74
2021/11/11 04:22:40;;;;;;;;;50.00;38.00;;;;;18.46;45.14;101557.78;5059791;28;58943;-74
2021/11/11 04:25:06;;;;;;;;;43.00;35.50;;;;;18.41;45.80;101568.38;5026813;28;45771;-74
2021/11/11 04:27:35;;;;;;;;;41.25;34.75;;;;;18.42;45.40;101580.75;5043343;28;48024;-74
2021/11/11 04:30:13;;;;;;;;;44.75;37.00;;;;;18.41;45.24;101584.25;5027928;28;45816;-74
2021/11/11 04:32:38;;;;;;;;;43.50;35.75;;;;;18.40;45.35;101576.34;5045071;28;45483;-74
2021/11/11 04:35:04;;;;;;;;;43.50;37.00;;;;;18.40;45.51;101577.22;5042970;28;45542;-74
2021/11/11 04:37:34;;;;;;;;;39.75;35.00;;;;;18.41;45.12;101581.59;5043192;28;45956;-74
2021/11/11 05:03:36;;;;;;;;;42.00;35.00;;;;;18.31;45.07;101583.47;5059848;28;45288;-74
2021/11/11 05:06:02;;;;;;;;;44.25;34.25;;;;;18.28;45.24;101569.41;5027434;28;45412;-74
2021/11/11 05:08:27;;;;;;;;;42.25;35.75;;;;;18.29;44.91;101571.16;5026036;28;47705;-74
2021/11/11 05:10:53;;;;;;;;;41.25;34.75;;;;;18.29;44.89;101569.38;5043056;28;45352;-74
2021/11/11 05:13:19;;;;;;;;;46.50;37.00;;;;;18.31;45.30;101579.94;5025911;28;45333;-74
2021/11/11 05:15:44;;;;;;;;;44.75;36.00;;;;;18.32;45.47;101585.19;5059559;28;45276;-74
2021/11/11 05:18:10;;;;;;;;;44.50;35.75;;;;;18.33;45.34;101578.16;5060544;28;45283;-74
2021/11/11 05:20:35;;;;;;;;;42.50;35.00;;;;;18.36;44.88;101572.84;5042881;28;45263;-74
2021/11/11 05:23:00;;;;;;;;;45.50;35.50;;;;;18.36;44.79;101581.66;5073099;28;45215;-74
2021/11/11 05:25:26;;;;;;;;;46.25;37.00;;;;;18.37;44.79;101577.25;5060805;28;45219;-74
2021/11/11 05:27:51;;;;;;;;;44.00;35.25;;;;;18.39;44.58;101583.38;5059835;28;58697;-74
2021/11/11 05:30:18;;;;;;;;;49.00;39.00;;;;;18.39;45.16;101587.81;5042538;28;45282;-74
2021/11/11 05:32:44;;;;;;;;;46.00;38.50;;;;;18.40;45.26;101582.50;5026391;28;45430;-74
2021/11/11 05:35:10;;;;;;;;;49.00;39.50;;;;;18.40;45.44;101579.84;5042589;28;45514;-74
2021/11/11 05:37:35;;;;;;;;;44.50;36.00;;;;;18.41;45.58;101596.59;5059019;28;46208;-74
2021/11/11 05:40:00;;;;;;;;;47.00;37.25;;;;;18.40;45.35;101586.91;5042669;28;45336;-74
2021/11/11 05:42:26;;;;;;;;;49.25;39.00;;;;;18.42;45.12;101598.34;5042181;28;45885;-75
2021/11/11 05:44:51;;;;;;;;;50.25;40.25;;;;;18.42;45.25;101593.03;5041145;28;61880;-74
2021/11/11 05:47:17;;;;;;;;;41.00;35.50;;;;;18.43;44.75;101600.13;5041492;28;47490;-77
2021/11/11 05:49:42;;;;;;;;;46.00;37.50;;;;;18.41;44.50;101608.03;5042212;28;45645;-78
2021/11/11 05:52:08;;;;;;;;;50.25;39.25;;;;;18.39;44.76;101609.81;5025566;28;45482;-78
2021/11/11 05:54:37;;;;;;;;;45.25;35.75;;;;;18.36;44.75;101617.78;5042256;28;45420;-74
2021/11/11 05:57:02;;;;;;;;;51.00;41.75;;;;;18.35;44.21;101626.59;5042352;28;46133;-74
2021/11/11 05:59:39;;;;;;;;;50.50;41.25;;;;;18.27;43.70;101623.16;5058773;28;45324;-76
2021/11/11 06:02:11;;;;;;;;;45.75;36.75;;;;;18.17;43.01;101626.75;4987066;28;45507;-74
2021/11/11 06:04:36;;;;;;;;;54.00;42.25;;;;;18.13;43.73;101635.59;5019081;28;45337;-72
2021/11/11 06:07:02;;;;;;;;;44.75;36.00;;;;;18.14;44.79;101647.91;5018333;28;47408;-72
2021/11/11 06:09:27;;;;;;;;;31.25;25.75;;;;;18.29;46.15;101653.06;5020279;28;46366;-69
2021/11/11 06:11:52;;;;;;;;;44.00;35.25;;;;;18.49;47.10;101656.41;5017688;28;60955;-72
2021/11/11 06:14:18;;;;;;;;;44.50;34.75;;;;;18.75;50.24;101660.63;5001877;28;54276;-72
2021/11/11 06:16:43;;;;;;;;;43.50;35.50;;;;;19.01;50.36;101658.59;5001743;28;46912;-71
2021/11/11 06:19:10;;;;;;;;;38.75;34.25;;;;;19.27;50.17;101657.41;4985682;28;45432;-72
2021/11/11 06:21:37;;;;;;;;;39.50;35.50;;;;;19.49;49.84;101657.13;5002246;28;45531;-70
2021/11/11 06:24:02;;;;;;;;;37.00;33.50;;;;;19.71;49.89;101671.00;5002189;28;45413;-71
2021/11/11 06:26:31;;;;;;;;;41.00;35.00;;;;;19.91;50.01;101681.31;5018157;28;47382;-81
2021/11/11 06:28:56;;;;;;;;;44.75;35.50;;;;;20.08;47.03;101674.91;5002270;28;45245;-69
2021/11/11 06:31:21;;;;;;;;;43.75;37.75;;;;;20.19;46.30;101673.84;5001091;28;59653;-70
2021/11/11 06:33:47;;;;;;;;;39.75;35.00;;;;;20.29;46.05;101682.50;4985452;28;45258;-70
2021/11/11 06:36:12;;;;;;;;;40.00;34.50;;;;;20.39;45.78;101688.53;5017877;28;52813;-70
2021/11/11 06:38:38;;;;;;;;;43.25;36.50;;;;;20.46;45.31;101695.53;5018621;28;45312;-71
2021/11/11 06:41:03;;;;;;;;;40.50;35.00;;;;;20.54;45.73;101696.28;5018826;28;60280;-71
2021/11/11 06:43:29;;;;;;;;;42.50;36.00;;;;;20.60;45.83;101691.75;5019239;28;49022;-73
2021/11/11 06:45:54;;;;;;;;;39.25;34.25;;;;;20.67;46.35;101700.47;5017735;28;45360;-72
2021/11/11 06:48:20;;;;;;;;;41.25;33.50;;;;;20.72;46.41;101695.97;5015158;28;46760;-70
2021/11/11 06:50:45;;;;;;;;;44.25;36.00;;;;;20.80;45.96;101714.41;5001590;28;45534;-71
2021/11/11 06:53:12;;;;;;;;;48.25;38.25;;;;;20.84;46.12;101718.75;5001305;28;52829;-72
2021/11/11 06:55:39;;;;;;;;;43.75;35.25;;;;;20.87;46.63;101721.38;5017883;28;46288;-71
2021/11/11 06:58:05;;;;;;;;;45.00;36.50;;;;;20.91;46.17;101717.72;5004353;28;45271;-74
2021/11/11 07:00:30;;;;;;;;;46.25;35.50;;;;;20.96;46.25;101729.16;5036503;28;45515;-72
2021/11/11 07:02:56;;;;;;;;;34.25;31.75;;;;;20.99;46.44;101725.56;5061881;28;45173;-74
2021/11/11 07:05:21;;;;;;;;;42.25;34.25;;;;;20.97;46.93;101722.94;5062593;28;45912;-73
2021/11/11 07:07:46;;;;;;;;;39.50;33.50;;;;;21.02;46.30;101730.81;5061323;28;47757;-74
2021/11/11 07:10:12;;;;;;;;;40.25;32.50;;;;;21.02;46.10;101725.50;5061255;28;45452;-73
2021/11/11 07:12:38;;;;;;;;;43.50;35.25;;;;;21.04;45.85;101721.06;5043895;28;45256;-73
2021/11/11 07:15:05;;;;;;;;;39.25;34.00;;;;;21.02;45.92;101714.88;5026838;28;64640;-74
2021/11/11 07:17:33;;;;;;;;;40.75;34.50;;;;;21.04;46.14;101729.03;5046492;28;45436;-71
2021/11/11 07:19:59;;;;;;;;;41.00;33.75;;;;;20.98;44.42;101729.13;5061672;28;45405;-75
2021/11/11 07:22:24;;;;;;;;;48.50;39.50;;;;;20.76;43.70;101720.66;5062660;28;45317;-75
2021/11/11 07:24:50;;;;;;;;;51.25;40.75;;;;;20.58;43.00;101730.66;5044062;28;51963;-75
2021/11/11 07:27:15;;;;;;;;;47.25;36.75;;;;;20.29;43.22;101712.53;5030058;28;45204;-75
2021/11/11 07:29:40;;;;;;;;;46.25;40.00;;;;;20.20;42.83;101719.78;5061198;28;45670;-75
2021/11/11 07:32:06;;;;;;;;;47.00;37.25;;;;;20.08;42.91;101730.56;5043730;28;49412;-75
2021/11/11 07:34:33;;;;;;;;;47.50;37.50;;;;;19.90;42.82;101715.78;5045875;28;47266;-76
2021/11/11 07:36:58;;;;;;;;;44.00;36.50;;;;;19.86;42.92;101729.97;5044354;28;45244;-74
2021/11/11 07:39:25;;;;;;;;;49.50;39.00;;;;;19.75;43.00;101728.34;5044567;28;51203;-75
2021/11/11 07:41:50;;;;;;;;;46.25;39.25;;;;;19.63;42.74;101720.53;5044045;28;45868;-75
2021/11/11 07:44:16;;;;;;;;;50.25;40.50;;;;;19.63;41.89;101731.13;5060179;28;54689;-74
2021/11/11 07:46:42;;;;;;;;;50.25;36.50;;;;;19.51;41.89;101739.19;5061781;28;52756;-76
2021/11/11 07:49:08;;;;;;;;;46.50;37.50;;;;;19.36;42.41;101724.34;5060664;28;45530;-75
2021/11/11 07:51:33;;;;;;;;;48.75;38.25;;;;;19.34;41.80;101739.38;5061530;28;45441;-75
2021/11/11 07:54:08;;;;;;;;;52.00;41.75;;;;;19.33;42.26;101729.69;5041310;28;47079;-76
2021/11/11 07:56:37;;;;;;;;;50.00;40.50;;;;;19.32;42.69;101733.25;5039358;28;45252;-75
2021/11/11 07:59:03;;;;;;;;;49.50;41.50;;;;;19.29;42.82;101722.69;5047237;28;45468;-77
2021/11/11 08:01:29;;;;;;;;;51.50;38.75;;;;;19.33;42.85;101729.69;5059952;28;45396;-74
2021/11/11 08:03:54;;;;;;;;;53.00;42.50;;;;;19.30;42.58;101723.56;5061743;28;46083;-74
2021/11/11 08:06:23;;;;;;;;;47.25;36.75;;;;;19.30;43.04;101718.28;5061687;28;45444;-75
2021/11/11 08:08:48;;;;;;;;;52.75;42.75;;;;;19.32;43.12;101708.53;5059481;28;45372;-74
2021/11/11 08:11:14;;;;;;;;;48.00;38.75;;;;;19.31;43.38;101705.03;5061873;28;45288;-74
2021/11/11 08:13:40;;;;;;;;;52.75;41.25;;;;;19.31;42.94;101707.66;5060418;28;46208;-74
2021/11/11 08:16:05;;;;;;;;;51.25;41.00;;;;;19.28;42.71;101701.50;5061562;28;45307;-75
2021/11/11 08:18:30;;;;;;;;;52.00;42.50;;;;;19.28;42.81;101712.97;5043756;28;45357;-74
2021/11/11 08:20:56;;;;;;;;;53.25;41.00;;;;;19.27;43.13;101715.63;5043549;28;45301;-75
2021/11/11 08:23:31;;;;;;;;;50.00;39.75;;;;;19.23;43.17;101712.16;5061323;28;52325;-76
2021/11/11 08:26:02;;;;;;;;;50.50;39.25;;;;;19.19;43.31;101708.66;5043537;28;45278;-74
2021/11/11 08:28:28;;;;;;;;;55.00;41.50;;;;;19.13;43.15;101706.09;5028504;28;45452;-75
2021/11/11 08:30:53;;;;;;;;;53.50;42.00;;;;;19.20;43.41;101717.50;5026301;28;45309;-75
2021/11/11 08:33:19;;;;;;;;;49.75;39.25;;;;;19.21;43.52;101708.66;5059499;28;61042;-74
2021/11/11 08:35:45;;;;;;;;;47.25;37.25;;;;;19.21;43.42;101708.66;5042826;28;57773;-75
2021/11/11 08:38:11;;;;;;;;;48.50;39.75;;;;;19.23;43.22;101704.22;5059952;28;45384;-74
2021/11/11 08:40:37;;;;;;;;;52.00;41.25;;;;;19.25;43.02;101707.72;5043152;28;45254;-75
2021/11/11 08:43:02;;;;;;;;;52.50;39.50;;;;;19.24;42.80;101695.38;5042944;28;48496;-75
2021/11/11 08:45:29;;;;;;;;;53.50;42.75;;;;;19.28;43.11;101685.63;5026215;28;45857;-75
2021/11/11 08:47:58;;;;;;;;;51.00;40.50;;;;;19.31;42.74;101688.25;5043211;28;45389;-74
2021/11/11 08:50:28;;;;;;;;;52.50;41.25;;;;;19.33;43.29;101687.34;5042979;28;45337;-74
2021/11/11 08:52:54;;;;;;;;;53.00;42.50;;;;;19.37;43.08;101680.22;5043258;28;47935;-75
2021/11/11 08:55:22;;;;;;;;;52.00;41.75;;;;;19.40;42.95;101673.16;5026497;28;45423;-75
2021/11/11 08:57:47;;;;;;;;;52.50;42.75;;;;;19.42;43.19;101667.81;5043002;28;45431;-74
2021/11/11 09:00:16;;;;;;;;;54.00;43.25;;;;;19.46;42.72;101669.56;5059024;28;54804;-75
2021/11/11 09:02:44;;;;;;;;;50.75;42.00;;;;;19.44;42.42;101661.59;5043171;28;46170;-75
2021/11/11 09:05:13;;;;;;;;;51.00;42.25;;;;;19.45;42.86;101658.06;5026127;28;45499;-75
2021/11/11 09:07:39;;;;;;;;;55.00;42.25;;;;;19.48;42.87;101667.75;5045561;28;45544;-72
2021/11/11 09:10:11;;;;;;;;;53.00;44.25;;;;;19.51;42.66;101669.47;5028008;28;45253;-74
2021/11/11 09:12:39;;;;;;;;;54.75;42.75;;;;;19.52;42.43;101668.56;5042481;28;46997;-73
2021/11/11 09:15:06;;;;;;;;;50.25;40.00;;;;;19.52;42.68;101665.94;5042856;28;45404;-75
2021/11/11 09:17:35;;;;;;;;;53.50;42.25;;;;;19.59;42.25;101676.47;5026160;28;45507;-74
2021/11/11 09:20:01;;;;;;;;;51.75;40.50;;;;;19.61;42.27;101673.78;5042315;28;45566;-75
2021/11/11 09:22:27;;;;;;;;;57.75;43.50;;;;;19.63;42.68;101667.56;5059364;28;47295;-73
2021/11/11 09:24:53;;;;;;;;;56.75;44.50;;;;;19.65;42.33;101665.78;5059295;28;45458;-73
2021/11/11 09:27:21;;;;;;;;;54.50;42.00;;;;;19.67;41.98;101669.28;5059635;28;45343;-74
2021/11/11 09:29:47;;;;;;;;;53.50;44.00;;;;;19.64;42.05;101669.34;5042538;28;45236;-75
2021/11/11 09:32:12;;;;;;;;;54.75;42.25;;;;;19.62;41.90;101664.94;5042087;28;52403;-73
2021/11/11 09:34:38;;;;;;;;;49.75;38.75;;;;;19.64;42.30;101669.34;5042560;28;45280;-74
2021/11/11 09:37:03;;;;;;;;;54.50;44.00;;;;;19.65;41.97;101660.50;5059499;28;45229;-73
2021/11/11 09:39:29;;;;;;;;;55.75;45.25;;;;;19.70;42.33;101671.88;5076131;28;45566;-75
2021/11/11 09:42:35;;;;;;;;;53.25;42.25;;;;;19.69;41.87;101662.19;5042122;28;48162;-76
2021/11/11 09:45:02;;;;;;;;;56.00;44.00;;;;;19.68;42.07;101662.22;5043792;28;45434;-74
2021/11/11 09:47:27;;;;;;;;;49.50;40.00;;;;;19.69;42.33;101664.84;5042399;28;45319;-74
2021/11/11 09:50:03;;;;;;;;;54.25;44.00;;;;;19.72;42.41;101661.25;5059410;28;45659;-73
2021/11/11 09:52:29;;;;;;;;;58.00;43.00;;;;;19.72;42.43;101667.47;5042842;28;46278;-73
2021/11/11 10:00:31;;;;;;;;;54.00;43.50;;;;;19.71;42.39;101643.63;5058112;28;45489;-78
2021/11/11 10:02:57;;;;;;;;;51.75;41.75;;;;;19.80;42.46;101663.81;5025394;28;48120;-74
2021/11/11 10:05:25;;;;;;;;;126.25;110.25;;;;;19.83;41.45;101653.19;5060074;28;45477;-75
2021/11/11 10:07:54;;;;;;;;;511.67;413.00;;;;;19.83;42.04;101655.84;5042080;28;45265;-73
2021/11/11 10:10:40;;;;;;;;;575.40;474.80;;;;;19.80;41.81;101654.09;5024631;28;45486;-74
2021/11/11 10:13:20;;;;;;;;;440.60;366.00;;;;;19.79;43.43;101648.81;5041637;28;46220;-76
2021/11/11 10:16:08;;;;;;;;;345.25;286.75;;;;;19.89;43.96;101653.94;5025052;28;46154;-71
2021/11/11 10:19:00;;;;;;;;;257.50;220.00;;;;;19.97;43.51;101637.94;5057426;28;45454;-72
2021/11/11 10:24:18;;;;;;;;;151.00;131.00;;;;;20.06;43.59;101621.91;5030708;28;45525;-73
2021/11/11 10:27:05;;;;;;;;;127.75;109.50;;;;;20.09;44.12;101619.22;5058152;28;45435;-74
2021/11/11 10:29:38;;;;;;;;;111.25;98.00;;;;;20.10;44.44;101618.31;5055965;28;45283;-75
2021/11/11 10:32:38;;;;;;;;;91.50;81.00;;;;;20.11;44.65;101605.94;5059453;28;45372;-74
2021/11/11 10:35:08;;;;;;;;;86.50;75.00;;;;;20.20;43.75;101629.66;5054122;28;46460;-75
2021/11/11 10:37:41;;;;;;;;;82.25;70.00;;;;;20.18;44.07;101613.78;5044894;28;45342;-73
2021/11/11 10:40:07;;;;;;;;;80.25;66.75;;;;;20.26;44.15;101619.81;5025760;28;45458;-74
2021/11/11 10:42:33;;;;;;;;;79.50;67.25;;;;;20.28;43.59;101633.91;5061095;28;45531;-73
2021/11/11 10:44:58;;;;;;;;;80.25;65.25;;;;;20.28;43.76;101638.34;5061386;28;45375;-73
2021/11/11 10:47:27;;;;;;;;;75.75;57.50;;;;;20.27;43.59;101634.81;5061617;28;45454;-73
2021/11/11 10:49:55;;;;;;;;;77.00;59.75;;;;;20.29;43.55;101643.63;5061972;28;45337;-78
2021/11/11 10:52:31;;;;;;;;;76.25;60.50;;;;;20.33;43.72;101645.34;5043606;28;46465;-76
2021/11/11 10:55:10;;;;;;;;;75.50;57.50;;;;;20.35;43.55;101649.75;5058502;28;47565;-76
2021/11/11 10:57:43;;;;;;;;;73.00;56.00;;;;;20.31;43.81;101647.13;5061697;28;45561;-74
2021/11/11 11:00:17;;;;;;;;;72.50;55.50;;;;;20.33;43.86;101644.47;5044411;28;45660;-76
2021/11/11 11:02:55;;;;;;;;;72.00;55.75;;;;;20.30;43.62;101639.19;5062772;28;45495;-78
2021/11/11 11:05:22;;;;;;;;;71.00;55.00;;;;;20.28;43.81;101623.31;5062571;28;45418;-76
2021/11/11 11:07:58;;;;;;;;;70.50;55.75;;;;;20.28;43.60;101625.09;5064307;28;45244;-76
2021/11/11 11:10:23;;;;;;;;;70.50;54.00;;;;;20.24;43.09;101616.34;5066795;27;45338;-78
2021/11/11 11:12:48;;;;;;;;;75.50;54.50;;;;;20.27;43.37;101621.56;5041212;28;45320;-77
2021/11/11 11:15:34;;;;;;;;;72.25;56.75;;;;;20.26;43.24;101606.56;5044291;28;48294;-77
2021/11/11 11:17:59;;;;;;;;;69.00;51.25;;;;;20.26;43.08;101603.91;5062178;28;45781;-81
2021/11/11 11:20:27;;;;;;;;;70.50;53.50;;;;;20.27;42.87;101602.13;5061445;28;45439;-79
2021/11/11 11:23:20;;;;;;;;;71.00;53.25;;;;;20.25;43.16;101594.22;5047024;28;45710;-75
2021/11/11 11:25:55;;;;;;;;;71.75;56.50;;;;;20.18;42.99;101578.44;5055807;28;47330;-78
2021/11/11 11:28:49;;;;;;;;;69.25;53.25;;;;;20.12;43.18;101565.28;5044262;28;45693;-77
2021/11/11 11:31:29;;;;;;;;;69.75;53.25;;;;;20.25;43.02;101593.34;5060845;28;45497;-78
2021/11/11 11:33:55;;;;;;;;;69.50;53.25;;;;;20.21;42.93;101587.19;5061066;28;45265;-76
2021/11/11 11:36:31;;;;;;;;;72.00;55.00;;;;;20.15;42.97;101589.94;5062315;28;45236;-76
2021/11/11 11:39:06;;;;;;;;;67.50;51.50;;;;;20.10;43.00;101583.88;5060137;28;45249;-76
2021/11/11 11:46:07;;;;;;;;;;;;;;;;;;;;;
2021/11/11 11:52:09;;;;;;;;;67.50;52.75;;;;;20.13;47.63;101602.34;5005504;28;45358;-77